sensor_id;sensor_type;location;lat;lon;timestamp;P1;durP1;ratioP1;P2;durP2;ratioP2
12884;SDS011;6510;51.362;7.370;2022-08-19T00:00:28;11.57;;;10.47;;
12884;SDS011;6510;51.362;7.370;2022-08-19T00:02:54;11.90;;;10.80;;
12884;SDS011;6510;51.362;7.370;2022-08-19T00:05:20;12.20;;;10.60;;
12884;SDS011;6510;51.362;7.370;2022-08-19T00:07:48;11.63;;;10.57;;
12884;SDS011;6510;51.362;7.370;2022-08-19T00:10:15;11.43;;;10.33;;
12884;SDS011;6510;51.362;7.370;2022-08-19T00:12:41;11.20;;;10.20;;
12884;SDS011;6510;51.362;7.370;2022-08-19T00:15:09;11.40;;;10.40;;
12884;SDS011;6510;51.362;7.370;2022-08-19T00:17:36;11.17;;;10.07;;
12884;SDS011;6510;51.362;7.370;2022-08-19T00:20:03;11.50;;;10.33;;
12884;SDS011;6510;51.362;7.370;2022-08-19T00:22:29;11.60;;;10.47;;
12884;SDS011;6510;51.362;7.370;2022-08-19T00:24:54;12.00;;;10.73;;
12884;SDS011;6510;51.362;7.370;2022-08-19T00:27:20;12.93;;;11.63;;
12884;SDS011;6510;51.362;7.370;2022-08-19T00:29:46;13.63;;;12.27;;
12884;SDS011;6510;51.362;7.370;2022-08-19T00:32:11;15.70;;;12.90;;
12884;SDS011;6510;51.362;7.370;2022-08-19T00:34:37;14.20;;;12.70;;
12884;SDS011;6510;51.362;7.370;2022-08-19T00:37:03;14.20;;;12.90;;
12884;SDS011;6510;51.362;7.370;2022-08-19T00:39:28;14.10;;;12.80;;
12884;SDS011;6510;51.362;7.370;2022-08-19T00:41:55;15.50;;;13.43;;
12884;SDS011;6510;51.362;7.370;2022-08-19T00:44:22;14.03;;;12.50;;
12884;SDS011;6510;51.362;7.370;2022-08-19T00:46:52;14.07;;;12.67;;
12884;SDS011;6510;51.362;7.370;2022-08-19T00:52:51;14.47;;;12.63;;
12884;SDS011;6510;51.362;7.370;2022-08-19T00:55:18;14.20;;;12.80;;
12884;SDS011;6510;51.362;7.370;2022-08-19T00:57:48;13.93;;;12.60;;
12884;SDS011;6510;51.362;7.370;2022-08-19T01:00:19;14.87;;;13.47;;
12884;SDS011;6510;51.362;7.370;2022-08-19T01:02:46;14.37;;;12.97;;
12884;SDS011;6510;51.362;7.370;2022-08-19T01:05:13;14.53;;;13.07;;
12884;SDS011;6510;51.362;7.370;2022-08-19T01:07:41;14.93;;;13.53;;
12884;SDS011;6510;51.362;7.370;2022-08-19T01:10:08;15.53;;;13.73;;
12884;SDS011;6510;51.362;7.370;2022-08-19T01:12:37;15.40;;;12.90;;
12884;SDS011;6510;51.362;7.370;2022-08-19T01:15:05;13.87;;;12.47;;
12884;SDS011;6510;51.362;7.370;2022-08-19T01:17:34;14.53;;;13.03;;
12884;SDS011;6510;51.362;7.370;2022-08-19T01:20:02;13.63;;;12.33;;
12884;SDS011;6510;51.362;7.370;2022-08-19T01:25:01;13.00;;;11.80;;
12884;SDS011;6510;51.362;7.370;2022-08-19T01:27:27;13.50;;;11.97;;
12884;SDS011;6510;51.362;7.370;2022-08-19T01:30:03;14.07;;;12.50;;
12884;SDS011;6510;51.362;7.370;2022-08-19T01:32:30;13.67;;;12.27;;
12884;SDS011;6510;51.362;7.370;2022-08-19T01:34:56;14.37;;;12.70;;
12884;SDS011;6510;51.362;7.370;2022-08-19T01:37:21;14.57;;;12.67;;
12884;SDS011;6510;51.362;7.370;2022-08-19T01:39:56;14.00;;;12.63;;
12884;SDS011;6510;51.362;7.370;2022-08-19T01:42:22;14.47;;;12.97;;
12884;SDS011;6510;51.362;7.370;2022-08-19T01:44:48;14.43;;;12.93;;
12884;SDS011;6510;51.362;7.370;2022-08-19T01:47:13;13.97;;;12.43;;
12884;SDS011;6510;51.362;7.370;2022-08-19T01:49:39;12.70;;;11.40;;
12884;SDS011;6510;51.362;7.370;2022-08-19T01:52:06;13.30;;;11.90;;
12884;SDS011;6510;51.362;7.370;2022-08-19T01:54:31;13.87;;;12.47;;
12884;SDS011;6510;51.362;7.370;2022-08-19T01:56:59;14.93;;;13.40;;
12884;SDS011;6510;51.362;7.370;2022-08-19T01:59:28;15.37;;;13.73;;
12884;SDS011;6510;51.362;7.370;2022-08-19T02:01:55;15.10;;;13.53;;
12884;SDS011;6510;51.362;7.370;2022-08-19T02:04:21;16.00;;;14.30;;
12884;SDS011;6510;51.362;7.370;2022-08-19T02:06:48;16.97;;;15.20;;
12884;SDS011;6510;51.362;7.370;2022-08-19T02:09:13;15.77;;;14.17;;
12884;SDS011;6510;51.362;7.370;2022-08-19T02:11:39;16.33;;;14.63;;
12884;SDS011;6510;51.362;7.370;2022-08-19T02:14:07;15.37;;;13.73;;
12884;SDS011;6510;51.362;7.370;2022-08-19T02:16:34;15.73;;;14.13;;
12884;SDS011;6510;51.362;7.370;2022-08-19T02:19:01;16.10;;;14.27;;
12884;SDS011;6510;51.362;7.370;2022-08-19T02:21:28;14.90;;;13.40;;
12884;SDS011;6510;51.362;7.370;2022-08-19T02:23:54;15.30;;;12.77;;
12884;SDS011;6510;51.362;7.370;2022-08-19T02:26:21;14.77;;;13.27;;
12884;SDS011;6510;51.362;7.370;2022-08-19T02:28:47;15.27;;;13.73;;
12884;SDS011;6510;51.362;7.370;2022-08-19T02:31:15;19.30;;;15.30;;
12884;SDS011;6510;51.362;7.370;2022-08-19T02:33:43;16.77;;;13.93;;
12884;SDS011;6510;51.362;7.370;2022-08-19T02:36:10;16.40;;;14.23;;
12884;SDS011;6510;51.362;7.370;2022-08-19T02:38:37;16.30;;;14.37;;
12884;SDS011;6510;51.362;7.370;2022-08-19T02:41:06;16.00;;;14.40;;
12884;SDS011;6510;51.362;7.370;2022-08-19T02:43:36;16.97;;;15.27;;
12884;SDS011;6510;51.362;7.370;2022-08-19T02:48:45;18.73;;;16.73;;
12884;SDS011;6510;51.362;7.370;2022-08-19T02:51:17;17.53;;;15.73;;
12884;SDS011;6510;51.362;7.370;2022-08-19T02:53:45;19.00;;;16.37;;
12884;SDS011;6510;51.362;7.370;2022-08-19T02:56:10;18.50;;;16.60;;
12884;SDS011;6510;51.362;7.370;2022-08-19T02:58:36;18.57;;;16.70;;
12884;SDS011;6510;51.362;7.370;2022-08-19T03:01:02;18.80;;;16.90;;
12884;SDS011;6510;51.362;7.370;2022-08-19T03:03:28;17.97;;;16.17;;
12884;SDS011;6510;51.362;7.370;2022-08-19T03:06:08;17.83;;;15.97;;
12884;SDS011;6510;51.362;7.370;2022-08-19T03:08:38;17.90;;;16.00;;
12884;SDS011;6510;51.362;7.370;2022-08-19T03:11:15;18.33;;;16.43;;
12884;SDS011;6510;51.362;7.370;2022-08-19T03:13:41;19.10;;;17.03;;
12884;SDS011;6510;51.362;7.370;2022-08-19T03:16:08;18.23;;;16.13;;
12884;SDS011;6510;51.362;7.370;2022-08-19T03:18:35;22.67;;;17.03;;
12884;SDS011;6510;51.362;7.370;2022-08-19T03:21:01;20.83;;;18.13;;
12884;SDS011;6510;51.362;7.370;2022-08-19T03:23:26;20.37;;;18.17;;
12884;SDS011;6510;51.362;7.370;2022-08-19T03:25:53;20.47;;;17.90;;
12884;SDS011;6510;51.362;7.370;2022-08-19T03:28:19;19.67;;;17.67;;
12884;SDS011;6510;51.362;7.370;2022-08-19T03:30:59;24.27;;;19.57;;
12884;SDS011;6510;51.362;7.370;2022-08-19T03:33:28;21.80;;;19.50;;
12884;SDS011;6510;51.362;7.370;2022-08-19T03:36:03;22.93;;;19.53;;
12884;SDS011;6510;51.362;7.370;2022-08-19T03:38:33;21.07;;;18.67;;
12884;SDS011;6510;51.362;7.370;2022-08-19T03:41:06;19.77;;;17.67;;
12884;SDS011;6510;51.362;7.370;2022-08-19T03:43:34;21.03;;;18.77;;
12884;SDS011;6510;51.362;7.370;2022-08-19T03:46:06;19.90;;;17.77;;
12884;SDS011;6510;51.362;7.370;2022-08-19T03:48:34;20.63;;;18.33;;
12884;SDS011;6510;51.362;7.370;2022-08-19T03:51:01;20.60;;;18.40;;
12884;SDS011;6510;51.362;7.370;2022-08-19T03:53:27;19.60;;;17.60;;
12884;SDS011;6510;51.362;7.370;2022-08-19T03:55:54;20.33;;;18.30;;
12884;SDS011;6510;51.362;7.370;2022-08-19T03:58:20;21.20;;;18.90;;
12884;SDS011;6510;51.362;7.370;2022-08-19T04:00:46;23.30;;;19.67;;
12884;SDS011;6510;51.362;7.370;2022-08-19T04:03:12;23.53;;;19.70;;
12884;SDS011;6510;51.362;7.370;2022-08-19T04:05:38;23.20;;;20.60;;
12884;SDS011;6510;51.362;7.370;2022-08-19T04:08:04;25.17;;;20.77;;
12884;SDS011;6510;51.362;7.370;2022-08-19T04:10:31;25.03;;;20.93;;
12884;SDS011;6510;51.362;7.370;2022-08-19T04:13:04;23.93;;;21.40;;
12884;SDS011;6510;51.362;7.370;2022-08-19T04:15:31;26.43;;;21.23;;
12884;SDS011;6510;51.362;7.370;2022-08-19T04:18:01;23.40;;;19.63;;
12884;SDS011;6510;51.362;7.370;2022-08-19T04:20:26;24.37;;;20.87;;
12884;SDS011;6510;51.362;7.370;2022-08-19T04:22:52;23.57;;;19.90;;
12884;SDS011;6510;51.362;7.370;2022-08-19T04:25:18;21.20;;;18.93;;
12884;SDS011;6510;51.362;7.370;2022-08-19T04:28:02;21.27;;;19.00;;
12884;SDS011;6510;51.362;7.370;2022-08-19T04:30:36;24.00;;;20.40;;
12884;SDS011;6510;51.362;7.370;2022-08-19T04:33:03;23.83;;;20.83;;
12884;SDS011;6510;51.362;7.370;2022-08-19T04:35:34;21.20;;;19.00;;
12884;SDS011;6510;51.362;7.370;2022-08-19T04:38:04;21.73;;;19.40;;
12884;SDS011;6510;51.362;7.370;2022-08-19T04:40:30;24.23;;;19.67;;
12884;SDS011;6510;51.362;7.370;2022-08-19T04:43:17;23.50;;;20.77;;
12884;SDS011;6510;51.362;7.370;2022-08-19T04:48:49;24.00;;;20.30;;
12884;SDS011;6510;51.362;7.370;2022-08-19T04:51:15;22.77;;;20.07;;
12884;SDS011;6510;51.362;7.370;2022-08-19T04:53:42;23.40;;;20.90;;
12884;SDS011;6510;51.362;7.370;2022-08-19T04:56:12;24.63;;;20.17;;
12884;SDS011;6510;51.362;7.370;2022-08-19T04:58:42;26.17;;;20.83;;
12884;SDS011;6510;51.362;7.370;2022-08-19T05:01:11;26.00;;;20.20;;
12884;SDS011;6510;51.362;7.370;2022-08-19T05:04:05;23.90;;;20.23;;
12884;SDS011;6510;51.362;7.370;2022-08-19T05:06:32;21.87;;;18.63;;
12884;SDS011;6510;51.362;7.370;2022-08-19T05:08:59;20.40;;;18.20;;
12884;SDS011;6510;51.362;7.370;2022-08-19T05:11:28;22.43;;;18.97;;
12884;SDS011;6510;51.362;7.370;2022-08-19T05:13:56;21.73;;;19.23;;
12884;SDS011;6510;51.362;7.370;2022-08-19T05:16:22;22.80;;;18.57;;
12884;SDS011;6510;51.362;7.370;2022-08-19T05:18:49;23.23;;;18.47;;
12884;SDS011;6510;51.362;7.370;2022-08-19T05:21:34;21.43;;;18.10;;
12884;SDS011;6510;51.362;7.370;2022-08-19T05:24:20;23.87;;;18.70;;
12884;SDS011;6510;51.362;7.370;2022-08-19T05:26:47;20.83;;;18.20;;
12884;SDS011;6510;51.362;7.370;2022-08-19T05:29:15;22.60;;;19.70;;
12884;SDS011;6510;51.362;7.370;2022-08-19T05:31:43;20.67;;;18.47;;
12884;SDS011;6510;51.362;7.370;2022-08-19T05:34:10;23.33;;;18.40;;
12884;SDS011;6510;51.362;7.370;2022-08-19T05:36:37;23.17;;;18.83;;
12884;SDS011;6510;51.362;7.370;2022-08-19T05:39:06;22.53;;;17.77;;
12884;SDS011;6510;51.362;7.370;2022-08-19T05:41:33;20.70;;;17.77;;
12884;SDS011;6510;51.362;7.370;2022-08-19T05:44:03;23.60;;;18.37;;
12884;SDS011;6510;51.362;7.370;2022-08-19T05:46:31;22.47;;;18.50;;
12884;SDS011;6510;51.362;7.370;2022-08-19T05:48:57;23.23;;;18.53;;
12884;SDS011;6510;51.362;7.370;2022-08-19T05:51:23;23.57;;;18.97;;
12884;SDS011;6510;51.362;7.370;2022-08-19T05:53:50;26.33;;;18.63;;
12884;SDS011;6510;51.362;7.370;2022-08-19T05:56:16;23.50;;;19.50;;
12884;SDS011;6510;51.362;7.370;2022-08-19T05:58:43;24.53;;;18.77;;
12884;SDS011;6510;51.362;7.370;2022-08-19T06:01:11;22.23;;;18.43;;
12884;SDS011;6510;51.362;7.370;2022-08-19T06:03:40;20.43;;;18.33;;
12884;SDS011;6510;51.362;7.370;2022-08-19T06:06:06;22.67;;;17.93;;
12884;SDS011;6510;51.362;7.370;2022-08-19T06:08:34;19.87;;;17.20;;
12884;SDS011;6510;51.362;7.370;2022-08-19T06:13:43;21.00;;;17.50;;
12884;SDS011;6510;51.362;7.370;2022-08-19T06:16:15;19.37;;;17.37;;
12884;SDS011;6510;51.362;7.370;2022-08-19T06:18:51;18.53;;;16.53;;
12884;SDS011;6510;51.362;7.370;2022-08-19T06:21:18;21.67;;;15.90;;
12884;SDS011;6510;51.362;7.370;2022-08-19T06:23:46;19.30;;;17.33;;
12884;SDS011;6510;51.362;7.370;2022-08-19T06:26:12;18.43;;;16.47;;
12884;SDS011;6510;51.362;7.370;2022-08-19T06:28:38;18.77;;;15.73;;
12884;SDS011;6510;51.362;7.370;2022-08-19T06:31:08;18.33;;;15.83;;
12884;SDS011;6510;51.362;7.370;2022-08-19T06:33:34;20.97;;;16.80;;
12884;SDS011;6510;51.362;7.370;2022-08-19T06:36:00;17.77;;;15.23;;
12884;SDS011;6510;51.362;7.370;2022-08-19T06:38:26;24.43;;;17.93;;
12884;SDS011;6510;51.362;7.370;2022-08-19T06:40:59;19.63;;;16.45;;
12884;SDS011;6510;51.362;7.370;2022-08-19T06:43:29;18.30;;;16.27;;
12884;SDS011;6510;51.362;7.370;2022-08-19T06:45:55;19.27;;;16.00;;
12884;SDS011;6510;51.362;7.370;2022-08-19T06:48:20;19.95;;;15.80;;
12884;SDS011;6510;51.362;7.370;2022-08-19T06:50:47;21.73;;;15.95;;
12884;SDS011;6510;51.362;7.370;2022-08-19T06:53:14;16.15;;;14.63;;
12884;SDS011;6510;51.362;7.370;2022-08-19T06:55:40;17.05;;;15.00;;
12884;SDS011;6510;51.362;7.370;2022-08-19T06:58:06;21.08;;;15.55;;
12884;SDS011;6510;51.362;7.370;2022-08-19T07:00:32;17.08;;;15.27;;
12884;SDS011;6510;51.362;7.370;2022-08-19T07:02:58;18.40;;;15.98;;
12884;SDS011;6510;51.362;7.370;2022-08-19T07:05:25;18.63;;;15.27;;
12884;SDS011;6510;51.362;7.370;2022-08-19T07:07:50;19.48;;;16.15;;
12884;SDS011;6510;51.362;7.370;2022-08-19T07:10:16;17.63;;;15.63;;
12884;SDS011;6510;51.362;7.370;2022-08-19T07:12:43;17.50;;;15.63;;
12884;SDS011;6510;51.362;7.370;2022-08-19T07:15:09;21.45;;;16.85;;
12884;SDS011;6510;51.362;7.370;2022-08-19T07:17:36;21.67;;;16.92;;
12884;SDS011;6510;51.362;7.370;2022-08-19T07:20:03;19.90;;;17.08;;
12884;SDS011;6510;51.362;7.370;2022-08-19T07:22:31;18.77;;;16.85;;
12884;SDS011;6510;51.362;7.370;2022-08-19T07:24:58;18.60;;;16.70;;
12884;SDS011;6510;51.362;7.370;2022-08-19T07:27:24;20.00;;;17.42;;
12884;SDS011;6510;51.362;7.370;2022-08-19T07:29:50;20.55;;;18.38;;
12884;SDS011;6510;51.362;7.370;2022-08-19T07:32:16;25.80;;;18.85;;
12884;SDS011;6510;51.362;7.370;2022-08-19T07:34:42;18.75;;;16.95;;
12884;SDS011;6510;51.362;7.370;2022-08-19T07:37:08;21.63;;;17.85;;
12884;SDS011;6510;51.362;7.370;2022-08-19T07:39:34;22.00;;;17.63;;
12884;SDS011;6510;51.362;7.370;2022-08-19T07:42:09;20.88;;;16.95;;
12884;SDS011;6510;51.362;7.370;2022-08-19T07:44:35;20.90;;;16.73;;
12884;SDS011;6510;51.362;7.370;2022-08-19T07:47:02;21.83;;;17.85;;
12884;SDS011;6510;51.362;7.370;2022-08-19T07:49:28;17.90;;;16.00;;
12884;SDS011;6510;51.362;7.370;2022-08-19T07:52:05;20.85;;;15.77;;
12884;SDS011;6510;51.362;7.370;2022-08-19T07:54:33;17.50;;;15.40;;
12884;SDS011;6510;51.362;7.370;2022-08-19T07:57:01;17.38;;;14.48;;
12884;SDS011;6510;51.362;7.370;2022-08-19T07:59:28;16.63;;;14.73;;
12884;SDS011;6510;51.362;7.370;2022-08-19T08:01:54;16.15;;;14.48;;
12884;SDS011;6510;51.362;7.370;2022-08-19T08:04:21;20.10;;;14.75;;
12884;SDS011;6510;51.362;7.370;2022-08-19T08:07:05;17.63;;;14.77;;
12884;SDS011;6510;51.362;7.370;2022-08-19T08:09:50;12.88;;;11.57;;
12884;SDS011;6510;51.362;7.370;2022-08-19T08:12:18;13.95;;;12.52;;
12884;SDS011;6510;51.362;7.370;2022-08-19T08:14:58;12.88;;;11.68;;
12884;SDS011;6510;51.362;7.370;2022-08-19T08:17:29;12.07;;;10.73;;
12884;SDS011;6510;51.362;7.370;2022-08-19T08:19:55;12.68;;;11.45;;
12884;SDS011;6510;51.362;7.370;2022-08-19T08:22:22;12.20;;;11.00;;
12884;SDS011;6510;51.362;7.370;2022-08-19T08:25:08;12.30;;;11.13;;
12884;SDS011;6510;51.362;7.370;2022-08-19T08:27:37;14.43;;;9.93;;
12884;SDS011;6510;51.362;7.370;2022-08-19T08:30:06;11.88;;;10.68;;
12884;SDS011;6510;51.362;7.370;2022-08-19T08:32:35;10.82;;;9.82;;
12884;SDS011;6510;51.362;7.370;2022-08-19T08:35:06;12.48;;;11.15;;
12884;SDS011;6510;51.362;7.370;2022-08-19T08:37:34;11.93;;;10.82;;
12884;SDS011;6510;51.362;7.370;2022-08-19T08:40:10;11.43;;;10.43;;
12884;SDS011;6510;51.362;7.370;2022-08-19T08:42:55;12.02;;;10.85;;
12884;SDS011;6510;51.362;7.370;2022-08-19T08:45:30;11.63;;;10.43;;
12884;SDS011;6510;51.362;7.370;2022-08-19T08:47:58;11.85;;;10.65;;
12884;SDS011;6510;51.362;7.370;2022-08-19T08:50:33;10.63;;;9.60;;
12884;SDS011;6510;51.362;7.370;2022-08-19T08:53:04;11.25;;;10.13;;
12884;SDS011;6510;51.362;7.370;2022-08-19T08:55:33;10.98;;;9.98;;
12884;SDS011;6510;51.362;7.370;2022-08-19T08:58:04;12.07;;;10.88;;
12884;SDS011;6510;51.362;7.370;2022-08-19T09:00:38;13.15;;;11.77;;
12884;SDS011;6510;51.362;7.370;2022-08-19T09:03:13;12.00;;;10.48;;
12884;SDS011;6510;51.362;7.370;2022-08-19T09:06:02;14.68;;;13.48;;
12884;SDS011;6510;51.362;7.370;2022-08-19T09:08:49;14.05;;;12.85;;
12884;SDS011;6510;51.362;7.370;2022-08-19T09:11:25;14.20;;;12.90;;
12884;SDS011;6510;51.362;7.370;2022-08-19T09:14:02;12.50;;;11.43;;
12884;SDS011;6510;51.362;7.370;2022-08-19T09:16:56;15.90;;;14.60;;
12884;SDS011;6510;51.362;7.370;2022-08-19T09:19:22;16.30;;;15.00;;
12884;SDS011;6510;51.362;7.370;2022-08-19T09:21:48;16.55;;;15.05;;
12884;SDS011;6510;51.362;7.370;2022-08-19T09:24:15;17.13;;;15.68;;
12884;SDS011;6510;51.362;7.370;2022-08-19T09:26:40;15.27;;;13.88;;
12884;SDS011;6510;51.362;7.370;2022-08-19T09:29:09;12.43;;;11.32;;
12884;SDS011;6510;51.362;7.370;2022-08-19T09:31:35;12.55;;;11.38;;
12884;SDS011;6510;51.362;7.370;2022-08-19T09:34:12;13.60;;;12.30;;
12884;SDS011;6510;51.362;7.370;2022-08-19T09:36:37;13.93;;;12.73;;
12884;SDS011;6510;51.362;7.370;2022-08-19T09:39:04;13.90;;;12.70;;
12884;SDS011;6510;51.362;7.370;2022-08-19T09:41:31;13.68;;;12.35;;
12884;SDS011;6510;51.362;7.370;2022-08-19T09:43:57;14.07;;;12.60;;
12884;SDS011;6510;51.362;7.370;2022-08-19T09:46:24;14.10;;;12.80;;
12884;SDS011;6510;51.362;7.370;2022-08-19T09:48:56;12.63;;;11.52;;
12884;SDS011;6510;51.362;7.370;2022-08-19T09:51:27;15.13;;;13.65;;
12884;SDS011;6510;51.362;7.370;2022-08-19T09:53:54;15.25;;;13.85;;
12884;SDS011;6510;51.362;7.370;2022-08-19T09:56:23;16.08;;;14.45;;
12884;SDS011;6510;51.362;7.370;2022-08-19T09:58:49;17.70;;;16.00;;
12884;SDS011;6510;51.362;7.370;2022-08-19T10:01:18;18.40;;;16.67;;
12884;SDS011;6510;51.362;7.370;2022-08-19T10:03:50;21.65;;;19.60;;
12884;SDS011;6510;51.362;7.370;2022-08-19T10:06:18;19.45;;;17.52;;
12884;SDS011;6510;51.362;7.370;2022-08-19T10:08:47;17.88;;;16.23;;
12884;SDS011;6510;51.362;7.370;2022-08-19T10:11:13;19.45;;;16.95;;
12884;SDS011;6510;51.362;7.370;2022-08-19T10:13:41;19.10;;;17.30;;
12884;SDS011;6510;51.362;7.370;2022-08-19T10:16:09;20.00;;;18.08;;
12884;SDS011;6510;51.362;7.370;2022-08-19T10:18:39;14.45;;;13.25;;
12884;SDS011;6510;51.362;7.370;2022-08-19T10:21:12;12.90;;;11.57;;
12884;SDS011;6510;51.362;7.370;2022-08-19T10:23:41;14.38;;;13.15;;
12884;SDS011;6510;51.362;7.370;2022-08-19T10:26:10;14.35;;;12.90;;
12884;SDS011;6510;51.362;7.370;2022-08-19T10:28:41;14.55;;;13.18;;
12884;SDS011;6510;51.362;7.370;2022-08-19T10:31:07;11.38;;;10.35;;
12884;SDS011;6510;51.362;7.370;2022-08-19T10:33:42;11.43;;;10.23;;
12884;SDS011;6510;51.362;7.370;2022-08-19T10:36:10;9.23;;;8.43;;
12884;SDS011;6510;51.362;7.370;2022-08-19T10:38:42;12.70;;;9.90;;
12884;SDS011;6510;51.362;7.370;2022-08-19T10:41:12;11.05;;;10.05;;
12884;SDS011;6510;51.362;7.370;2022-08-19T10:43:47;12.00;;;11.00;;
12884;SDS011;6510;51.362;7.370;2022-08-19T10:46:17;14.02;;;12.73;;
12884;SDS011;6510;51.362;7.370;2022-08-19T10:48:43;13.10;;;11.90;;
12884;SDS011;6510;51.362;7.370;2022-08-19T10:51:10;13.50;;;12.25;;
12884;SDS011;6510;51.362;7.370;2022-08-19T10:53:55;8.45;;;7.75;;
12884;SDS011;6510;51.362;7.370;2022-08-19T10:56:21;10.32;;;9.52;;
12884;SDS011;6510;51.362;7.370;2022-08-19T10:59:06;11.15;;;10.25;;
12884;SDS011;6510;51.362;7.370;2022-08-19T11:01:32;9.88;;;8.73;;
12884;SDS011;6510;51.362;7.370;2022-08-19T11:04:00;8.23;;;7.53;;
12884;SDS011;6510;51.362;7.370;2022-08-19T11:06:26;10.10;;;9.20;;
12884;SDS011;6510;51.362;7.370;2022-08-19T11:08:53;9.57;;;8.73;;
12884;SDS011;6510;51.362;7.370;2022-08-19T11:11:19;11.00;;;9.98;;
12884;SDS011;6510;51.362;7.370;2022-08-19T11:13:46;9.90;;;8.90;;
12884;SDS011;6510;51.362;7.370;2022-08-19T11:16:16;8.23;;;7.53;;
12884;SDS011;6510;51.362;7.370;2022-08-19T11:18:45;8.32;;;7.55;;
12884;SDS011;6510;51.362;7.370;2022-08-19T11:21:17;8.35;;;7.60;;
12884;SDS011;6510;51.362;7.370;2022-08-19T11:23:46;8.35;;;7.65;;
12884;SDS011;6510;51.362;7.370;2022-08-19T11:26:14;7.53;;;6.93;;
12884;SDS011;6510;51.362;7.370;2022-08-19T11:28:40;11.02;;;9.88;;
12884;SDS011;6510;51.362;7.370;2022-08-19T11:31:13;9.68;;;8.88;;
12884;SDS011;6510;51.362;7.370;2022-08-19T11:33:41;9.52;;;8.77;;
12884;SDS011;6510;51.362;7.370;2022-08-19T11:36:08;6.40;;;5.93;;
12884;SDS011;6510;51.362;7.370;2022-08-19T11:38:37;6.10;;;5.70;;
12884;SDS011;6510;51.362;7.370;2022-08-19T11:41:06;6.10;;;5.70;;
12884;SDS011;6510;51.362;7.370;2022-08-19T11:43:33;6.50;;;6.00;;
12884;SDS011;6510;51.362;7.370;2022-08-19T11:45:59;10.88;;;9.88;;
12884;SDS011;6510;51.362;7.370;2022-08-19T11:48:28;11.30;;;10.27;;
12884;SDS011;6510;51.362;7.370;2022-08-19T11:50:54;9.95;;;9.20;;
12884;SDS011;6510;51.362;7.370;2022-08-19T11:53:22;8.90;;;8.10;;
12884;SDS011;6510;51.362;7.370;2022-08-19T11:55:48;7.75;;;7.15;;
12884;SDS011;6510;51.362;7.370;2022-08-19T11:58:15;8.82;;;7.00;;
12884;SDS011;6510;51.362;7.370;2022-08-19T12:00:42;8.18;;;7.53;;
12884;SDS011;6510;51.362;7.370;2022-08-19T12:03:10;10.57;;;9.75;;
12884;SDS011;6510;51.362;7.370;2022-08-19T12:05:38;11.35;;;10.45;;
12884;SDS011;6510;51.362;7.370;2022-08-19T12:08:05;11.05;;;10.05;;
12884;SDS011;6510;51.362;7.370;2022-08-19T12:10:32;10.10;;;9.27;;
12884;SDS011;6510;51.362;7.370;2022-08-19T12:12:58;10.43;;;9.52;;
12884;SDS011;6510;51.362;7.370;2022-08-19T12:15:24;10.13;;;9.23;;
12884;SDS011;6510;51.362;7.370;2022-08-19T12:17:52;9.30;;;8.60;;
12884;SDS011;6510;51.362;7.370;2022-08-19T12:20:20;11.30;;;10.40;;
12884;SDS011;6510;51.362;7.370;2022-08-19T12:22:45;10.68;;;8.35;;
12884;SDS011;6510;51.362;7.370;2022-08-19T12:25:11;9.07;;;8.38;;
12884;SDS011;6510;51.362;7.370;2022-08-19T12:27:38;10.23;;;9.43;;
12884;SDS011;6510;51.362;7.370;2022-08-19T12:30:04;12.45;;;11.23;;
12884;SDS011;6510;51.362;7.370;2022-08-19T12:32:31;12.85;;;11.65;;
12884;SDS011;6510;51.362;7.370;2022-08-19T12:34:57;11.88;;;10.88;;
12884;SDS011;6510;51.362;7.370;2022-08-19T12:37:23;13.38;;;12.27;;
12884;SDS011;6510;51.362;7.370;2022-08-19T12:39:48;13.13;;;11.95;;
12884;SDS011;6510;51.362;7.370;2022-08-19T12:42:14;14.85;;;13.55;;
12884;SDS011;6510;51.362;7.370;2022-08-19T12:44:41;15.20;;;13.88;;
12884;SDS011;6510;51.362;7.370;2022-08-19T12:47:08;13.93;;;12.77;;
12884;SDS011;6510;51.362;7.370;2022-08-19T12:49:35;12.57;;;11.68;;
12884;SDS011;6510;51.362;7.370;2022-08-19T12:52:05;12.05;;;10.98;;
12884;SDS011;6510;51.362;7.370;2022-08-19T12:54:32;11.57;;;10.68;;
12884;SDS011;6510;51.362;7.370;2022-08-19T12:56:58;11.82;;;10.82;;
12884;SDS011;6510;51.362;7.370;2022-08-19T12:59:27;11.30;;;10.35;;
12884;SDS011;6510;51.362;7.370;2022-08-19T13:01:55;11.65;;;10.55;;
12884;SDS011;6510;51.362;7.370;2022-08-19T13:04:31;12.73;;;9.43;;
12884;SDS011;6510;51.362;7.370;2022-08-19T13:07:00;10.75;;;9.85;;
12884;SDS011;6510;51.362;7.370;2022-08-19T13:09:26;9.75;;;8.88;;
12884;SDS011;6510;51.362;7.370;2022-08-19T13:11:51;8.90;;;8.20;;
12884;SDS011;6510;51.362;7.370;2022-08-19T13:14:17;8.77;;;7.97;;
12884;SDS011;6510;51.362;7.370;2022-08-19T13:16:43;8.00;;;7.20;;
12884;SDS011;6510;51.362;7.370;2022-08-19T13:19:09;9.30;;;7.60;;
12884;SDS011;6510;51.362;7.370;2022-08-19T13:21:35;7.38;;;6.75;;
12884;SDS011;6510;51.362;7.370;2022-08-19T13:24:01;6.38;;;5.78;;
12884;SDS011;6510;51.362;7.370;2022-08-19T13:26:27;6.63;;;6.03;;
12884;SDS011;6510;51.362;7.370;2022-08-19T13:28:53;6.60;;;6.10;;
12884;SDS011;6510;51.362;7.370;2022-08-19T13:31:39;5.65;;;5.15;;
12884;SDS011;6510;51.362;7.370;2022-08-19T13:34:29;6.72;;;6.22;;
12884;SDS011;6510;51.362;7.370;2022-08-19T13:37:00;6.15;;;5.65;;
12884;SDS011;6510;51.362;7.370;2022-08-19T13:39:35;6.45;;;5.90;;
12884;SDS011;6510;51.362;7.370;2022-08-19T13:42:02;6.30;;;5.85;;
12884;SDS011;6510;51.362;7.370;2022-08-19T13:44:29;5.80;;;5.40;;
12884;SDS011;6510;51.362;7.370;2022-08-19T13:46:55;6.50;;;6.00;;
12884;SDS011;6510;51.362;7.370;2022-08-19T13:49:30;7.00;;;6.40;;
12884;SDS011;6510;51.362;7.370;2022-08-19T13:51:56;7.30;;;6.70;;
12884;SDS011;6510;51.362;7.370;2022-08-19T13:54:22;8.07;;;7.43;;
12884;SDS011;6510;51.362;7.370;2022-08-19T13:56:48;8.77;;;7.45;;
12884;SDS011;6510;51.362;7.370;2022-08-19T13:59:13;8.07;;;7.47;;
12884;SDS011;6510;51.362;7.370;2022-08-19T14:01:40;7.97;;;7.28;;
12884;SDS011;6510;51.362;7.370;2022-08-19T14:04:06;8.00;;;7.30;;
12884;SDS011;6510;51.362;7.370;2022-08-19T14:06:33;8.20;;;7.40;;
12884;SDS011;6510;51.362;7.370;2022-08-19T14:08:58;7.95;;;7.18;;
12884;SDS011;6510;51.362;7.370;2022-08-19T14:11:24;7.90;;;7.18;;
12884;SDS011;6510;51.362;7.370;2022-08-19T14:13:51;7.63;;;6.90;;
12884;SDS011;6510;51.362;7.370;2022-08-19T14:16:16;6.80;;;6.20;;
12884;SDS011;6510;51.362;7.370;2022-08-19T14:18:42;7.03;;;6.30;;
12884;SDS011;6510;51.362;7.370;2022-08-19T14:21:13;7.50;;;6.70;;
12884;SDS011;6510;51.362;7.370;2022-08-19T14:23:43;7.40;;;6.47;;
12884;SDS011;6510;51.362;7.370;2022-08-19T14:26:11;6.88;;;6.35;;
12884;SDS011;6510;51.362;7.370;2022-08-19T14:28:39;6.38;;;5.78;;
12884;SDS011;6510;51.362;7.370;2022-08-19T14:31:06;5.95;;;5.55;;
12884;SDS011;6510;51.362;7.370;2022-08-19T14:33:33;6.50;;;5.93;;
12884;SDS011;6510;51.362;7.370;2022-08-19T14:35:59;6.80;;;6.20;;
12884;SDS011;6510;51.362;7.370;2022-08-19T14:38:25;5.93;;;5.43;;
12884;SDS011;6510;51.362;7.370;2022-08-19T14:40:52;6.93;;;6.10;;
12884;SDS011;6510;51.362;7.370;2022-08-19T14:43:18;7.10;;;6.07;;
12884;SDS011;6510;51.362;7.370;2022-08-19T14:45:43;6.88;;;6.28;;
12884;SDS011;6510;51.362;7.370;2022-08-19T14:48:09;6.45;;;5.88;;
12884;SDS011;6510;51.362;7.370;2022-08-19T14:50:36;6.63;;;5.82;;
12884;SDS011;6510;51.362;7.370;2022-08-19T14:53:08;6.45;;;5.85;;
12884;SDS011;6510;51.362;7.370;2022-08-19T14:55:34;6.20;;;5.70;;
12884;SDS011;6510;51.362;7.370;2022-08-19T14:58:00;5.97;;;5.47;;
12884;SDS011;6510;51.362;7.370;2022-08-19T15:00:26;6.25;;;5.72;;
12884;SDS011;6510;51.362;7.370;2022-08-19T15:02:52;6.10;;;5.60;;